Time;durP1;ratioP1;P1;durP2;ratioP2;P2;SDS_P1;SDS_P2;PMS_P1;PMS_P2;Temp;Humidity;BMP_temperature;BMP_pressure;BME280_temperature;BME280_humidity;BME280_pressure;Samples;Min_cycle;Max_cycle;Signal;HPM_P1;HPM_P2
2023/09/03 00:00:22;;;;;;;10.60;5.10;;;;;;;;;;5111972;28;20249;-28
2023/09/03 00:02:47;;;;;;;6.93;4.95;;;;;;;;;;5111656;28;20491;-28
2023/09/03 00:05:13;;;;;;;7.10;4.55;;;;;;;;;;5111640;28;20024;-28
2023/09/03 00:07:38;;;;;;;5.80;4.10;;;;;;;;;;5111937;28;20008;-28
2023/09/03 00:10:03;;;;;;;8.20;4.80;;;;;;;;;;5112010;28;20285;-28
2023/09/03 00:12:28;;;;;;;9.13;5.32;;;;;;;;;;5111698;28;21001;-28
2023/09/03 00:14:54;;;;;;;10.87;4.47;;;;;;;;;;5111600;28;20034;-29
2023/09/03 00:17:19;;;;;;;6.97;4.32;;;;;;;;;;5111547;28;20269;-29
2023/09/03 00:19:44;;;;;;;7.18;4.80;;;;;;;;;;5111556;28;20030;-29
2023/09/03 00:22:10;;;;;;;6.55;4.60;;;;;;;;;;5111596;28;20024;-29
2023/09/03 00:24:35;;;;;;;6.00;4.50;;;;;;;;;;5112121;28;20077;-28
2023/09/03 00:27:00;;;;;;;6.13;4.63;;;;;;;;;;5117770;28;20657;-29
2023/09/03 00:29:26;;;;;;;10.40;4.45;;;;;;;;;;5117784;28;20478;-29
2023/09/03 00:31:51;;;;;;;6.55;4.75;;;;;;;;;;5117872;28;20023;-29
2023/09/03 00:34:17;;;;;;;8.93;4.70;;;;;;;;;;5118178;28;20016;-28
2023/09/03 00:36:42;;;;;;;7.05;4.35;;;;;;;;;;5117877;28;20016;-29
2023/09/03 00:39:07;;;;;;;8.83;4.87;;;;;;;;;;5117568;28;20019;-29
2023/09/03 00:41:32;;;;;;;8.53;4.90;;;;;;;;;;5117424;28;20277;-29
2023/09/03 00:43:57;;;;;;;8.90;4.93;;;;;;;;;;5117420;28;20285;-29
2023/09/03 00:46:23;;;;;;;7.25;5.03;;;;;;;;;;5117556;28;20062;-29
2023/09/03 00:48:49;;;;;;;8.10;4.70;;;;;;;;;;5117182;28;20039;-29
2023/09/03 00:51:15;;;;;;;10.23;5.00;;;;;;;;;;5117273;28;20020;-28
2023/09/03 00:53:43;;;;;;;11.40;5.18;;;;;;;;;;5117784;28;20016;-29
2023/09/03 00:56:10;;;;;;;8.00;4.45;;;;;;;;;;5117094;28;20072;-29
2023/09/03 00:58:35;;;;;;;7.82;4.70;;;;;;;;;;5117142;28;20023;-27
2023/09/03 01:01:01;;;;;;;8.02;4.45;;;;;;;;;;5117328;28;20020;-29
2023/09/03 01:03:26;;;;;;;7.00;4.75;;;;;;;;;;5117045;28;20047;-27
2023/09/03 01:05:52;;;;;;;10.15;4.68;;;;;;;;;;5099036;28;20030;-27
2023/09/03 01:08:17;;;;;;;10.02;5.00;;;;;;;;;;5117457;28;20421;-28
2023/09/03 01:10:51;;;;;;;7.10;4.60;;;;;;;;;;5116891;28;20081;-28
2023/09/03 01:13:25;;;;;;;7.80;4.50;;;;;;;;;;5117091;28;20069;-28
2023/09/03 01:15:51;;;;;;;6.63;4.63;;;;;;;;;;5117045;28;20043;-28
2023/09/03 01:18:19;;;;;;;8.25;4.72;;;;;;;;;;5117777;28;20020;-28
2023/09/03 01:21:03;;;;;;;7.53;4.53;;;;;;;;;;5116870;28;20137;-28
2023/09/03 01:23:37;;;;;;;6.97;4.45;;;;;;;;;;5116669;28;20042;-28
2023/09/03 01:26:21;;;;;;;11.90;4.85;;;;;;;;;;5116559;28;20035;-29
2023/09/03 01:28:46;;;;;;;;;;;;;;;;;;5116874;28;20051;-32
2023/09/03 01:31:11;;;;;;;6.97;4.15;;;;;;;;;;5116420;28;20021;-28
2023/09/03 01:33:40;;;;;;;8.98;4.63;;;;;;;;;;5116662;28;20016;-28
2023/09/03 01:36:06;;;;;;;6.20;4.60;;;;;;;;;;5116539;28;20348;-29
2023/09/03 01:38:32;;;;;;;8.40;4.60;;;;;;;;;;5115980;28;20327;-28
2023/09/03 01:40:59;;;;;;;8.60;4.70;;;;;;;;;;5116593;28;20022;-28
2023/09/03 01:43:24;;;;;;;7.20;4.35;;;;;;;;;;5116152;28;20040;-28
2023/09/03 01:45:55;;;;;;;10.48;5.13;;;;;;;;;;5116364;28;20023;-28
2023/09/03 01:48:32;;;;;;;6.78;4.93;;;;;;;;;;5115986;28;20054;-28
2023/09/03 01:51:03;;;;;;;7.97;4.95;;;;;;;;;;5116141;28;20012;-28
2023/09/03 01:53:39;;;;;;;7.90;4.80;;;;;;;;;;5116108;28;20052;-28
2023/09/03 01:56:04;;;;;;;7.45;4.70;;;;;;;;;;5116034;28;20072;-28
2023/09/03 01:58:32;;;;;;;7.18;4.95;;;;;;;;;;5115904;28;20015;-27
2023/09/03 02:00:59;;;;;;;11.98;5.10;;;;;;;;;;5116273;28;20034;-29
2023/09/03 02:03:26;;;;;;;6.60;4.97;;;;;;;;;;5115839;28;20099;-28
2023/09/03 02:05:51;;;;;;;9.27;5.28;;;;;;;;;;5116058;28;20018;-29
2023/09/03 02:08:17;;;;;;;6.93;5.10;;;;;;;;;;5097793;28;20362;-29
2023/09/03 02:10:42;;;;;;;7.57;5.40;;;;;;;;;;5115739;28;20461;-29
2023/09/03 02:13:07;;;;;;;8.00;5.40;;;;;;;;;;5115979;28;20258;-29
2023/09/03 02:15:32;;;;;;;6.93;4.90;;;;;;;;;;5115957;28;20249;-29
2023/09/03 02:17:57;;;;;;;11.10;5.73;;;;;;;;;;5115880;28;20776;-28
2023/09/03 02:20:22;;;;;;;8.40;5.37;;;;;;;;;;5115516;28;20264;-29
2023/09/03 02:22:48;;;;;;;8.10;5.50;;;;;;;;;;5115481;28;20262;-29
2023/09/03 02:25:13;;;;;;;8.53;5.40;;;;;;;;;;5115730;28;20296;-29
2023/09/03 02:27:38;;;;;;;6.93;5.20;;;;;;;;;;5115453;28;20294;-28
2023/09/03 02:30:04;;;;;;;7.80;5.33;;;;;;;;;;5115762;28;20337;-28
2023/09/03 02:32:29;;;;;;;9.23;6.28;;;;;;;;;;5115580;28;20254;-29
2023/09/03 02:34:54;;;;;;;9.90;6.55;;;;;;;;;;5115228;28;20026;-29
2023/09/03 02:37:20;;;;;;;12.33;6.93;;;;;;;;;;5115215;28;20023;-29
2023/09/03 02:39:45;;;;;;;12.55;7.15;;;;;;;;;;5115768;28;20246;-29
2023/09/03 02:42:10;;;;;;;11.77;7.07;;;;;;;;;;5115057;28;20016;-28
2023/09/03 02:44:35;;;;;;;10.35;6.90;;;;;;;;;;5115115;28;20106;-29
2023/09/03 02:47:00;;;;;;;15.73;6.53;;;;;;;;;;5114896;28;20138;-28
2023/09/03 02:49:26;;;;;;;11.23;6.90;;;;;;;;;;5113989;28;20619;-29
2023/09/03 02:51:51;;;;;;;10.82;6.38;;;;;;;;;;5115152;28;20306;-29
2023/09/03 02:54:16;;;;;;;13.50;6.65;;;;;;;;;;5115254;28;20016;-29
2023/09/03 02:56:41;;;;;;;9.80;6.55;;;;;;;;;;5114809;28;20424;-29
2023/09/03 02:59:07;;;;;;;10.20;6.63;;;;;;;;;;5115135;28;20026;-29
2023/09/03 03:01:33;;;;;;;10.47;6.30;;;;;;;;;;5115323;28;20311;-29
2023/09/03 03:03:59;;;;;;;10.65;6.38;;;;;;;;;;5114992;28;20249;-29
2023/09/03 03:06:24;;;;;;;8.48;6.18;;;;;;;;;;5114978;28;20034;-28
2023/09/03 03:08:49;;;;;;;9.83;6.30;;;;;;;;;;5114560;28;20453;-29
2023/09/03 03:11:15;;;;;;;8.00;5.60;;;;;;;;;;5114606;28;20250;-29
2023/09/03 03:13:42;;;;;;;10.60;5.65;;;;;;;;;;5114546;28;20645;-29
2023/09/03 03:16:11;;;;;;;8.90;5.80;;;;;;;;;;5114452;28;20015;-29
2023/09/03 03:18:37;;;;;;;7.90;5.53;;;;;;;;;;5114734;28;20377;-28
2023/09/03 03:21:08;;;;;;;10.75;5.80;;;;;;;;;;5114908;28;20117;-28
2023/09/03 03:23:37;;;;;;;15.35;5.45;;;;;;;;;;5115460;28;20024;-28
2023/09/03 03:26:02;;;;;;;12.07;5.65;;;;;;;;;;5114581;28;20020;-28
2023/09/03 03:28:30;;;;;;;9.95;5.63;;;;;;;;;;5114253;28;20381;-29
2023/09/03 03:30:56;;;;;;;9.95;5.50;;;;;;;;;;5114420;28;20096;-28
2023/09/03 03:33:21;;;;;;;13.52;5.38;;;;;;;;;;5114525;28;20012;-29
2023/09/03 03:35:46;;;;;;;8.47;5.47;;;;;;;;;;5114749;28;20015;-28
2023/09/03 03:38:11;;;;;;;10.07;5.70;;;;;;;;;;5114455;28;20263;-29
2023/09/03 03:40:36;;;;;;;10.37;5.37;;;;;;;;;;5114061;28;20297;-28
2023/09/03 03:43:01;;;;;;;8.97;5.57;;;;;;;;;;5114097;28;20302;-28
2023/09/03 03:45:27;;;;;;;8.63;5.70;;;;;;;;;;5114087;28;20253;-29
2023/09/03 03:47:52;;;;;;;13.17;5.77;;;;;;;;;;5113836;28;20052;-28
2023/09/03 03:50:17;;;;;;;10.77;5.83;;;;;;;;;;5114617;28;20261;-29
2023/09/03 03:52:42;;;;;;;8.50;5.60;;;;;;;;;;5114006;28;20627;-29
2023/09/03 03:55:07;;;;;;;8.83;5.73;;;;;;;;;;5113956;28;20257;-29
2023/09/03 03:57:33;;;;;;;8.38;5.40;;;;;;;;;;5114467;28;20261;-29
2023/09/03 03:59:58;;;;;;;8.57;5.30;;;;;;;;;;5114249;28;20012;-28
2023/09/03 04:02:23;;;;;;;9.13;5.00;;;;;;;;;;5114121;28;20751;-28
2023/09/03 04:04:52;;;;;;;9.50;5.53;;;;;;;;;;5113923;28;20060;-28
2023/09/03 04:07:17;;;;;;;8.52;5.53;;;;;;;;;;5113795;28;20323;-29
2023/09/03 04:09:42;;;;;;;9.37;5.30;;;;;;;;;;5113779;28;20024;-29
2023/09/03 04:12:07;;;;;;;9.13;5.30;;;;;;;;;;5114072;28;20750;-28
2023/09/03 04:14:33;;;;;;;10.40;5.55;;;;;;;;;;5114327;28;20015;-29
2023/09/03 04:16:58;;;;;;;10.47;5.77;;;;;;;;;;5114322;28;20016;-28
2023/09/03 04:19:23;;;;;;;7.67;4.90;;;;;;;;;;5114043;28;20648;-29
2023/09/03 04:21:48;;;;;;;8.98;5.05;;;;;;;;;;5113640;28;20290;-29
2023/09/03 04:24:13;;;;;;;8.95;5.18;;;;;;;;;;5113916;28;20023;-29
2023/09/03 04:26:38;;;;;;;8.73;5.10;;;;;;;;;;5114215;28;20027;-29
2023/09/03 04:29:06;;;;;;;11.87;5.27;;;;;;;;;;5114015;28;20102;-28
2023/09/03 04:31:31;;;;;;;8.25;5.90;;;;;;;;;;5113564;28;20337;-29
2023/09/03 04:33:56;;;;;;;10.18;5.65;;;;;;;;;;5113868;28;20032;-29
2023/09/03 04:36:22;;;;;;;8.20;5.90;;;;;;;;;;5113557;28;20019;-29
2023/09/03 04:38:47;;;;;;;11.18;6.50;;;;;;;;;;5113526;28;20268;-29
2023/09/03 04:41:12;;;;;;;9.47;5.90;;;;;;;;;;5113512;28;20016;-29
2023/09/03 04:43:37;;;;;;;9.73;6.20;;;;;;;;;;5113789;28;20249;-29
2023/09/03 04:46:03;;;;;;;9.43;6.20;;;;;;;;;;5113774;28;20023;-28
2023/09/03 04:48:28;;;;;;;11.57;6.20;;;;;;;;;;5113174;28;20042;-28
2023/09/03 04:50:53;;;;;;;9.90;5.60;;;;;;;;;;5113967;28;20253;-28
2023/09/03 04:53:18;;;;;;;6.95;5.18;;;;;;;;;;5113719;28;20344;-29
2023/09/03 04:55:44;;;;;;;7.90;5.18;;;;;;;;;;5113616;28;20059;-28
2023/09/03 04:58:09;;;;;;;10.35;5.47;;;;;;;;;;5113630;28;20505;-28
2023/09/03 05:00:34;;;;;;;16.15;5.65;;;;;;;;;;5113382;28;20462;-28
2023/09/03 05:03:01;;;;;;;10.35;5.28;;;;;;;;;;5113370;28;20020;-28
2023/09/03 05:05:26;;;;;;;8.43;5.25;;;;;;;;;;5113519;28;20027;-28
2023/09/03 05:07:51;;;;;;;9.98;5.43;;;;;;;;;;5113537;28;20478;-28
2023/09/03 05:10:17;;;;;;;8.60;5.47;;;;;;;;;;5113194;28;20028;-29
2023/09/03 05:12:42;;;;;;;9.30;5.60;;;;;;;;;;5114914;28;20020;-29
2023/09/03 05:15:08;;;;;;;11.80;5.60;;;;;;;;;;5117162;28;20011;-29
2023/09/03 05:17:33;;;;;;;8.23;5.18;;;;;;;;;;5116985;28;20415;-29
2023/09/03 05:19:58;;;;;;;13.50;5.13;;;;;;;;;;5117352;28;20019;-29
2023/09/03 05:22:23;;;;;;;9.97;5.53;;;;;;;;;;5116752;28;20250;-29
2023/09/03 05:24:49;;;;;;;10.40;6.33;;;;;;;;;;5116578;28;20265;-29
2023/09/03 05:27:14;;;;;;;10.80;6.15;;;;;;;;;;5098183;28;20254;-32
2023/09/03 05:29:39;;;;;;;11.50;5.90;;;;;;;;;;5116590;28;20062;-29
2023/09/03 05:32:04;;;;;;;8.35;5.20;;;;;;;;;;5117070;28;20246;-29
2023/09/03 05:34:30;;;;;;;15.57;6.82;;;;;;;;;;5116277;28;20138;-29
2023/09/03 05:36:55;;;;;;;8.93;6.30;;;;;;;;;;5116532;28;20023;-28
2023/09/03 05:39:20;;;;;;;11.40;6.03;;;;;;;;;;5116743;28;20023;-27
2023/09/03 05:41:45;;;;;;;11.95;6.13;;;;;;;;;;5115500;28;20262;-28
2023/09/03 05:44:15;;;;;;;10.63;6.77;;;;;;;;;;5115044;28;20026;-28
2023/09/03 05:46:41;;;;;;;7.85;5.40;;;;;;;;;;5115234;28;20353;-28
2023/09/03 05:49:06;;;;;;;8.93;5.68;;;;;;;;;;5115145;28;20083;-28
2023/09/03 05:51:31;;;;;;;8.27;5.63;;;;;;;;;;5115268;28;20077;-28
2023/09/03 05:53:56;;;;;;;11.77;5.33;;;;;;;;;;5115234;28;20755;-28
2023/09/03 05:56:21;;;;;;;10.02;6.28;;;;;;;;;;5116132;28;20027;-28
2023/09/03 05:58:47;;;;;;;11.27;6.38;;;;;;;;;;5116123;28;20047;-28
2023/09/03 06:01:12;;;;;;;8.98;6.43;;;;;;;;;;5116631;28;20515;-28
2023/09/03 06:03:38;;;;;;;10.25;6.45;;;;;;;;;;5116603;28;20028;-29
2023/09/03 06:06:04;;;;;;;8.77;6.20;;;;;;;;;;5115930;28;20016;-28
2023/09/03 06:08:32;;;;;;;9.27;6.18;;;;;;;;;;5115590;28;20016;-28
2023/09/03 06:10:58;;;;;;;8.70;5.90;;;;;;;;;;5116181;28;20064;-27
2023/09/03 06:13:23;;;;;;;8.60;6.03;;;;;;;;;;5115794;28;20016;-28
2023/09/03 06:15:49;;;;;;;7.88;5.90;;;;;;;;;;5115515;28;20062;-27
2023/09/03 06:18:15;;;;;;;9.43;6.07;;;;;;;;;;5115779;28;20011;-28
2023/09/03 06:20:40;;;;;;;11.65;6.45;;;;;;;;;;5115618;28;20038;-29
2023/09/03 06:23:05;;;;;;;10.63;6.65;;;;;;;;;;5115534;28;20450;-28
2023/09/03 06:25:30;;;;;;;16.00;7.30;;;;;;;;;;5116331;28;20069;-28
2023/09/03 06:27:55;;;;;;;12.37;7.50;;;;;;;;;;5115582;28;20739;-28
2023/09/03 06:30:21;;;;;;;8.52;6.45;;;;;;;;;;5115347;28;20348;-28
2023/09/03 06:32:46;;;;;;;10.77;7.67;;;;;;;;;;5115183;28;20050;-28
2023/09/03 06:35:11;;;;;;;12.03;7.53;;;;;;;;;;5115173;28;20415;-27
2023/09/03 06:37:36;;;;;;;11.10;7.70;;;;;;;;;;5115592;28;20340;-28
2023/09/03 06:40:03;;;;;;;14.23;7.32;;;;;;;;;;5114990;28;20306;-28
2023/09/03 06:42:29;;;;;;;11.27;7.28;;;;;;;;;;5115346;28;20022;-28
2023/09/03 06:44:54;;;;;;;11.50;8.02;;;;;;;;;;5114008;28;20408;-27
2023/09/03 06:47:20;;;;;;;12.50;7.80;;;;;;;;;;5112859;28;20056;-27
2023/09/03 06:49:45;;;;;;;13.87;8.53;;;;;;;;;;5113748;28;20023;-28
2023/09/03 06:52:10;;;;;;;17.00;9.50;;;;;;;;;;5113190;28;20300;-28
2023/09/03 06:54:35;;;;;;;13.07;9.07;;;;;;;;;;5114229;28;20321;-28
2023/09/03 06:57:01;;;;;;;15.73;8.70;;;;;;;;;;5115127;28;20458;-27
2023/09/03 06:59:26;;;;;;;12.50;9.02;;;;;;;;;;5115154;28;20458;-28
2023/09/03 07:01:51;;;;;;;14.87;9.50;;;;;;;;;;5096164;28;20023;-28
2023/09/03 07:04:16;;;;;;;14.00;9.37;;;;;;;;;;5114232;28;20028;-28
2023/09/03 07:06:41;;;;;;;15.60;9.20;;;;;;;;;;5114237;28;20015;-28
2023/09/03 07:09:07;;;;;;;14.00;9.63;;;;;;;;;;5113981;28;20024;-28
2023/09/03 07:11:32;;;;;;;13.67;9.83;;;;;;;;;;5114301;28;20020;-28
2023/09/03 07:13:57;;;;;;;21.30;9.97;;;;;;;;;;5113991;28;20264;-28
2023/09/03 07:16:23;;;;;;;15.77;9.82;;;;;;;;;;5114244;28;20015;-27
2023/09/03 07:18:48;;;;;;;14.32;9.50;;;;;;;;;;5114443;28;20030;-27
2023/09/03 07:21:13;;;;;;;12.63;9.00;;;;;;;;;;5114417;28;20019;-28
2023/09/03 07:23:38;;;;;;;16.97;8.70;;;;;;;;;;5114625;28;20264;-28
2023/09/03 07:26:04;;;;;;;12.20;8.83;;;;;;;;;;5114733;28;20020;-29
2023/09/03 07:28:30;;;;;;;12.68;9.38;;;;;;;;;;5114547;28;20683;-28
2023/09/03 07:30:55;;;;;;;12.32;9.10;;;;;;;;;;5114182;28;20050;-28
2023/09/03 07:33:20;;;;;;;16.17;9.53;;;;;;;;;;5114568;28;20110;-28
2023/09/03 07:35:45;;;;;;;13.10;9.20;;;;;;;;;;5113771;28;20314;-29
2023/09/03 07:38:11;;;;;;;13.67;9.30;;;;;;;;;;5114127;28;20023;-29
2023/09/03 07:40:39;;;;;;;14.10;9.47;;;;;;;;;;5114217;28;20023;-29
2023/09/03 07:43:04;;;;;;;11.68;8.57;;;;;;;;;;5114399;28;20028;-29
2023/09/03 07:45:30;;;;;;;11.30;8.23;;;;;;;;;;5114677;28;20408;-29
2023/09/03 07:47:55;;;;;;;11.07;8.13;;;;;;;;;;5114247;28;20053;-29
2023/09/03 07:50:20;;;;;;;12.30;8.17;;;;;;;;;;5113966;28;20369;-28
2023/09/03 07:52:45;;;;;;;10.75;8.15;;;;;;;;;;5113950;28;20016;-29
2023/09/03 07:55:10;;;;;;;11.17;7.70;;;;;;;;;;5113988;28;20022;-29
2023/09/03 07:57:36;;;;;;;13.03;8.00;;;;;;;;;;5115058;28;20358;-29
2023/09/03 08:00:01;;;;;;;11.30;7.63;;;;;;;;;;5113954;28;20059;-29
2023/09/03 08:02:26;;;;;;;13.55;7.93;;;;;;;;;;5114162;28;20019;-29
2023/09/03 08:04:51;;;;;;;11.33;8.17;;;;;;;;;;5113833;28;20016;-29
2023/09/03 08:07:17;;;;;;;11.82;8.23;;;;;;;;;;5114150;28;20023;-29
2023/09/03 08:09:42;;;;;;;10.67;7.90;;;;;;;;;;5113789;28;20091;-29
2023/09/03 08:12:07;;;;;;;9.67;7.77;;;;;;;;;;5113849;28;20246;-29
2023/09/03 08:14:32;;;;;;;9.00;7.33;;;;;;;;;;5113703;28;20096;-29
2023/09/03 08:16:57;;;;;;;10.27;6.87;;;;;;;;;;5114037;28;20019;-29
2023/09/03 08:19:23;;;;;;;11.27;7.17;;;;;;;;;;5113988;28;20377;-29
2023/09/03 08:21:48;;;;;;;9.30;6.80;;;;;;;;;;5113733;28;20034;-29
2023/09/03 08:24:13;;;;;;;7.80;6.20;;;;;;;;;;5113695;28;20073;-29
2023/09/03 08:26:38;;;;;;;9.40;6.05;;;;;;;;;;5113702;28;20496;-30
2023/09/03 08:29:03;;;;;;;8.53;5.50;;;;;;;;;;5113767;28;20052;-28
2023/09/03 08:31:29;;;;;;;9.43;5.80;;;;;;;;;;5114194;28;20704;-28
2023/09/03 08:33:55;;;;;;;9.13;5.80;;;;;;;;;;5113525;28;20619;-28
2023/09/03 08:36:22;;;;;;;8.23;5.60;;;;;;;;;;5113808;28;20423;-28
2023/09/03 08:38:47;;;;;;;8.27;5.15;;;;;;;;;;5113828;28;20386;-28
2023/09/03 08:41:12;;;;;;;8.03;5.07;;;;;;;;;;5113433;28;20016;-28
2023/09/03 08:43:38;;;;;;;5.77;4.10;;;;;;;;;;5113526;28;20027;-28
2023/09/03 08:46:08;;;;;;;7.95;4.63;;;;;;;;;;5113685;28;20262;-28
2023/09/03 08:48:34;;;;;;;7.45;4.65;;;;;;;;;;5116577;28;20131;-28
2023/09/03 08:50:59;;;;;;;6.80;4.30;;;;;;;;;;5117653;28;20054;-30
2023/09/03 08:53:25;;;;;;;5.90;3.70;;;;;;;;;;5117568;28;20025;-28
2023/09/03 08:55:50;;;;;;;4.20;2.60;;;;;;;;;;5117272;28;20378;-28
2023/09/03 08:58:15;;;;;;;4.40;2.60;;;;;;;;;;5117840;28;20026;-27
2023/09/03 09:00:41;;;;;;;3.70;2.28;;;;;;;;;;5116555;28;20253;-28
2023/09/03 09:03:11;;;;;;;5.60;2.90;;;;;;;;;;5116275;28;20034;-29
2023/09/03 09:05:36;;;;;;;4.13;2.58;;;;;;;;;;5117806;28;20023;-29
2023/09/03 09:08:03;;;;;;;6.65;2.72;;;;;;;;;;5117533;28;20042;-29
2023/09/03 09:10:30;;;;;;;3.75;2.20;;;;;;;;;;5117137;28;20077;-29
2023/09/03 09:12:59;;;;;;;3.75;2.58;;;;;;;;;;5117157;28;20080;-28
2023/09/03 09:15:24;;;;;;;5.32;2.03;;;;;;;;;;5117338;28;20091;-28
2023/09/03 09:17:49;;;;;;;2.60;1.50;;;;;;;;;;5117474;28;20062;-28
2023/09/03 09:20:15;;;;;;;3.88;1.70;;;;;;;;;;5117153;28;20422;-29
2023/09/03 09:22:44;;;;;;;2.80;1.85;;;;;;;;;;5117021;28;20023;-28
2023/09/03 09:25:16;;;;;;;4.88;2.80;;;;;;;;;;5117469;28;20019;-28
2023/09/03 09:27:41;;;;;;;3.75;2.25;;;;;;;;;;5117218;28;20050;-28
2023/09/03 09:30:11;;;;;;;5.63;2.40;;;;;;;;;;5117039;28;20024;-28
2023/09/03 09:32:36;;;;;;;3.13;1.95;;;;;;;;;;5116558;28;20023;-28
2023/09/03 09:35:01;;;;;;;3.22;2.00;;;;;;;;;;5116545;28;20091;-28
2023/09/03 09:37:35;;;;;;;3.60;2.10;;;;;;;;;;5116471;28;20110;-28
2023/09/03 09:40:01;;;;;;;4.43;1.83;;;;;;;;;;5116366;28;20044;-29
2023/09/03 09:42:26;;;;;;;3.83;2.23;;;;;;;;;;5116314;28;20020;-29
2023/09/03 09:44:51;;;;;;;3.00;1.80;;;;;;;;;;5116300;28;20329;-29
2023/09/03 09:47:17;;;;;;;3.00;1.70;;;;;;;;;;5116595;28;20052;-29
2023/09/03 09:49:43;;;;;;;3.35;1.90;;;;;;;;;;5116386;28;20016;-29
2023/09/03 09:52:09;;;;;;;3.95;1.90;;;;;;;;;;5116410;28;20477;-29
2023/09/03 09:54:43;;;;;;;3.35;1.52;;;;;;;;;;5116418;28;20410;-29
2023/09/03 09:57:12;;;;;;;3.40;1.90;;;;;;;;;;5115998;28;20481;-29
2023/09/03 09:59:39;;;;;;;2.45;1.70;;;;;;;;;;5115881;28;20019;-29
2023/09/03 10:02:14;;;;;;;3.63;1.50;;;;;;;;;;5115957;28;20020;-29
2023/09/03 10:04:41;;;;;;;3.03;1.42;;;;;;;;;;5115760;28;20173;-29
2023/09/03 10:07:07;;;;;;;2.83;1.30;;;;;;;;;;5115909;28;20026;-29
2023/09/03 10:09:33;;;;;;;3.40;1.50;;;;;;;;;;5115759;28;20024;-29
2023/09/03 10:11:58;;;;;;;4.57;1.42;;;;;;;;;;5115735;28;20043;-28
2023/09/03 10:14:25;;;;;;;2.60;1.40;;;;;;;;;;5115189;28;20020;-29
2023/09/03 10:16:52;;;;;;;2.80;1.40;;;;;;;;;;5114431;28;20134;-29
2023/09/03 10:19:19;;;;;;;2.28;1.23;;;;;;;;;;5113441;28;20145;-29
2023/09/03 10:21:45;;;;;;;3.63;1.50;;;;;;;;;;5113204;28;20012;-29
2023/09/03 10:24:13;;;;;;;2.10;1.30;;;;;;;;;;5112603;28;20024;-29
2023/09/03 10:26:40;;;;;;;3.42;1.27;;;;;;;;;;5112911;28;20024;-29
2023/09/03 10:29:07;;;;;;;1.85;1.30;;;;;;;;;;5112373;28;20016;-29
2023/09/03 10:31:35;;;;;;;3.17;1.50;;;;;;;;;;5112624;28;20038;-29
2023/09/03 10:34:00;;;;;;;1.55;1.02;;;;;;;;;;5114120;28;20410;-29
2023/09/03 10:36:25;;;;;;;2.95;1.30;;;;;;;;;;5114158;28;20011;-29
2023/09/03 10:38:51;;;;;;;3.43;1.50;;;;;;;;;;5115099;28;20367;-28
2023/09/03 10:41:21;;;;;;;7.40;2.38;;;;;;;;;;5115458;28;20273;-29
2023/09/03 10:43:46;;;;;;;2.78;1.50;;;;;;;;;;5115085;28;20026;-28
2023/09/03 10:46:12;;;;;;;2.88;1.35;;;;;;;;;;5115018;28;20106;-28
2023/09/03 10:48:37;;;;;;;3.20;1.40;;;;;;;;;;5114795;28;20036;-28
2023/09/03 10:51:03;;;;;;;3.15;1.60;;;;;;;;;;5115252;28;20027;-28
2023/09/03 10:53:34;;;;;;;2.38;1.52;;;;;;;;;;5114941;28;20060;-28
2023/09/03 10:56:13;;;;;;;4.68;1.67;;;;;;;;;;5115224;28;20038;-29
2023/09/03 10:58:54;;;;;;;5.13;1.60;;;;;;;;;;5115061;28;20030;-29
2023/09/03 11:01:22;;;;;;;3.45;1.50;;;;;;;;;;5115076;28;20023;-29
2023/09/03 11:03:52;;;;;;;2.60;1.50;;;;;;;;;;5115027;28;20019;-29
2023/09/03 11:06:18;;;;;;;3.15;1.52;;;;;;;;;;5114706;28;20015;-29
2023/09/03 11:08:47;;;;;;;4.07;1.80;;;;;;;;;;5096421;28;20458;-29
2023/09/03 11:11:20;;;;;;;2.25;1.30;;;;;;;;;;5114148;28;20451;-29
2023/09/03 11:13:48;;;;;;;2.83;1.40;;;;;;;;;;5114859;28;20051;-29
2023/09/03 11:16:14;;;;;;;1.38;1.10;;;;;;;;;;5114880;28;20027;-29
2023/09/03 11:18:46;;;;;;;2.13;1.13;;;;;;;;;;5115021;28;20084;-29
2023/09/03 11:21:11;;;;;;;2.33;1.42;;;;;;;;;;5114500;28;20027;-28
2023/09/03 11:23:36;;;;;;;2.20;1.23;;;;;;;;;;5114347;28;20073;-28
2023/09/03 11:26:03;;;;;;;2.37;1.20;;;;;;;;;;5114939;28;20080;-28
2023/09/03 11:28:33;;;;;;;2.65;1.30;;;;;;;;;;5114547;28;20419;-28
2023/09/03 11:31:00;;;;;;;1.42;1.15;;;;;;;;;;5114292;28;20129;-28
2023/09/03 11:33:26;;;;;;;4.93;1.10;;;;;;;;;;5114481;28;20466;-28
2023/09/03 11:35:53;;;;;;;1.92;1.20;;;;;;;;;;5114499;28;20018;-28
2023/09/03 11:38:18;;;;;;;3.78;1.33;;;;;;;;;;5114454;28;20016;-29
2023/09/03 11:40:44;;;;;;;4.05;1.20;;;;;;;;;;5114423;28;20476;-28
2023/09/03 11:43:09;;;;;;;1.93;1.13;;;;;;;;;;5114153;28;20020;-28
2023/09/03 11:45:35;;;;;;;3.20;1.13;;;;;;;;;;5114336;28;20012;-28
2023/09/03 11:48:02;;;;;;;1.73;1.13;;;;;;;;;;5113941;28;20413;-29
2023/09/03 11:50:27;;;;;;;1.75;1.10;;;;;;;;;;5113919;28;20016;-29
2023/09/03 11:52:56;;;;;;;2.53;1.10;;;;;;;;;;5113993;28;20026;-29
2023/09/03 11:55:24;;;;;;;5.20;1.10;;;;;;;;;;5113848;28;20018;-29
2023/09/03 11:57:49;;;;;;;1.98;1.27;;;;;;;;;;5113931;28;20131;-27
2023/09/03 12:00:15;;;;;;;1.40;1.20;;;;;;;;;;5114126;28;20466;-28
2023/09/03 12:02:41;;;;;;;3.42;1.10;;;;;;;;;;5114157;28;20024;-28
2023/09/03 12:05:06;;;;;;;3.08;1.40;;;;;;;;;;5112589;28;20543;-28
2023/09/03 12:07:32;;;;;;;4.03;1.38;;;;;;;;;;5111876;28;20016;-29
2023/09/03 12:09:57;;;;;;;3.57;1.50;;;;;;;;;;5114292;28;20058;-29
2023/09/03 12:12:22;;;;;;;2.58;1.60;;;;;;;;;;5113561;28;20265;-29
2023/09/03 12:14:48;;;;;;;2.72;1.50;;;;;;;;;;5113688;28;20107;-30
2023/09/03 12:17:25;;;;;;;3.03;1.77;;;;;;;;;;5112391;28;20011;-29
2023/09/03 12:19:51;;;;;;;3.90;1.58;;;;;;;;;;5111792;28;20084;-29
2023/09/03 12:22:17;;;;;;;4.45;1.40;;;;;;;;;;5114760;28;20462;-29
2023/09/03 12:24:45;;;;;;;2.13;1.35;;;;;;;;;;5115650;28;20024;-29
2023/09/03 12:27:10;;;;;;;1.65;1.42;;;;;;;;;;5115708;28;20027;-31
2023/09/03 12:29:37;;;;;;;2.37;1.40;;;;;;;;;;5116238;28;20015;-29
2023/09/03 12:32:03;;;;;;;3.50;1.60;;;;;;;;;;5117993;28;20394;-29
2023/09/03 12:34:35;;;;;;;2.50;1.30;;;;;;;;;;5117642;28;20053;-29
2023/09/03 12:37:00;;;;;;;2.35;1.30;;;;;;;;;;5117505;28;20098;-29
2023/09/03 12:39:36;;;;;;;2.60;1.60;;;;;;;;;;5117618;28;20115;-29
2023/09/03 12:42:02;;;;;;;2.67;1.50;;;;;;;;;;5117851;28;20474;-29
2023/09/03 12:44:28;;;;;;;2.92;1.40;;;;;;;;;;5117437;28;20023;-29
2023/09/03 12:46:53;;;;;;;1.80;1.33;;;;;;;;;;5117864;28;20039;-29
2023/09/03 12:49:19;;;;;;;3.42;1.50;;;;;;;;;;5117348;28;20284;-29
2023/09/03 12:51:44;;;;;;;3.03;1.40;;;;;;;;;;5117588;28;20343;-29
2023/09/03 12:54:09;;;;;;;3.23;1.87;;;;;;;;;;5117525;28;20081;-29
2023/09/03 12:56:35;;;;;;;1.65;1.20;;;;;;;;;;5117257;28;20275;-29
2023/09/03 12:59:04;;;;;;;2.30;1.50;;;;;;;;;;5117239;28;20055;-29
2023/09/03 13:01:30;;;;;;;2.10;1.30;;;;;;;;;;5117523;28;20461;-29
2023/09/03 13:03:56;;;;;;;3.20;1.40;;;;;;;;;;5117748;28;20035;-28
2023/09/03 13:06:21;;;;;;;1.83;1.43;;;;;;;;;;5117663;28;20023;-28
2023/09/03 13:08:47;;;;;;;1.50;1.20;;;;;;;;;;5116875;28;20015;-28
2023/09/03 13:11:12;;;;;;;2.30;1.30;;;;;;;;;;5117274;28;20023;-28
2023/09/03 13:13:37;;;;;;;1.98;1.27;;;;;;;;;;5117134;28;20030;-28
2023/09/03 13:16:03;;;;;;;2.50;1.07;;;;;;;;;;5117180;28;20366;-28
2023/09/03 13:18:28;;;;;;;2.75;1.40;;;;;;;;;;5117079;28;20011;-28
2023/09/03 13:20:54;;;;;;;1.50;1.13;;;;;;;;;;5116839;28;20462;-28
2023/09/03 13:23:19;;;;;;;1.77;1.23;;;;;;;;;;5117011;28;20012;-28
2023/09/03 13:25:44;;;;;;;2.42;1.20;;;;;;;;;;5116904;28;20355;-28
2023/09/03 13:28:09;;;;;;;1.50;0.90;;;;;;;;;;5116969;28;20024;-28
2023/09/03 13:30:35;;;;;;;1.42;0.93;;;;;;;;;;5116693;28;20284;-28
2023/09/03 13:33:01;;;;;;;1.83;1.20;;;;;;;;;;5115643;28;20080;-29
2023/09/03 13:35:27;;;;;;;4.43;1.52;;;;;;;;;;5116785;28;20015;-28
2023/09/03 13:37:53;;;;;;;1.60;1.20;;;;;;;;;;5116290;28;20028;-28
2023/09/03 13:40:18;;;;;;;1.63;1.20;;;;;;;;;;5116451;28;20023;-28
2023/09/03 13:42:43;;;;;;;2.17;1.30;;;;;;;;;;5097646;28;20096;-29
2023/09/03 13:45:08;;;;;;;3.60;1.40;;;;;;;;;;5115953;28;20497;-28
2023/09/03 13:47:33;;;;;;;3.25;1.33;;;;;;;;;;5115641;28;20047;-28
2023/09/03 13:49:59;;;;;;;3.60;1.60;;;;;;;;;;5115729;28;20458;-29
2023/09/03 13:52:24;;;;;;;1.73;1.30;;;;;;;;;;5115764;28;20015;-28
2023/09/03 13:54:50;;;;;;;2.60;1.10;;;;;;;;;;5115762;28;20015;-28
2023/09/03 13:57:15;;;;;;;3.90;1.20;;;;;;;;;;5116279;28;20758;-28
2023/09/03 13:59:41;;;;;;;3.15;1.40;;;;;;;;;;5116310;28;20051;-29
2023/09/03 14:02:07;;;;;;;2.17;1.30;;;;;;;;;;5116209;28;20027;-29
2023/09/03 14:04:32;;;;;;;3.10;1.20;;;;;;;;;;5116508;28;20031;-29
2023/09/03 14:06:57;;;;;;;1.33;1.00;;;;;;;;;;5116527;28;20024;-28
2023/09/03 14:09:22;;;;;;;1.90;1.20;;;;;;;;;;5116139;28;20374;-29
2023/09/03 14:11:47;;;;;;;1.55;1.00;;;;;;;;;;5115853;28;20715;-29
2023/09/03 14:14:13;;;;;;;4.47;1.03;;;;;;;;;;5116006;28;20023;-29
2023/09/03 14:16:38;;;;;;;2.03;1.10;;;;;;;;;;5116225;28;20272;-29
2023/09/03 14:19:03;;;;;;;2.38;1.02;;;;;;;;;;5115615;28;20023;-29
2023/09/03 14:21:29;;;;;;;1.58;1.00;;;;;;;;;;5115869;28;20031;-29
2023/09/03 14:23:54;;;;;;;2.50;1.17;;;;;;;;;;5115459;28;20019;-28
2023/09/03 14:26:19;;;;;;;1.63;1.10;;;;;;;;;;5115773;28;20016;-29
2023/09/03 14:28:44;;;;;;;1.75;1.10;;;;;;;;;;5115689;28;20289;-29
2023/09/03 14:31:10;;;;;;;1.83;1.10;;;;;;;;;;5115643;28;20474;-29
2023/09/03 14:33:35;;;;;;;1.45;1.05;;;;;;;;;;5115264;28;20016;-28